Home > Products > Valid Products > MTR

000
SAUS46 KPDT 280155
MTRMEH
METAR KMEH 280156Z AUTO 00000KT 10SM CLR 16/02 A3017 RMK AO2 SLP222
T01560017





000
SAUS46 KPDT 280055
MTRMEH
METAR KMEH 280056Z AUTO VRB04KT 10SM CLR 17/01 A3018 RMK AO2 SLP227
T01720011





000
SAUS46 KPDT 280055
MTRMEH
METAR KMEH 280056Z AUTO VRB04KT 10SM CLR 17/01 A3018 RMK AO2 SLP227
T01720011





000
SAUS46 KPDT 272356
MTRMEH
METAR KMEH 272356Z AUTO VRB05KT 10SM CLR 18/02 A3020 RMK AO2 SLP232
T01780017 10200 20144 56017





000
SAUS46 KPDT 272356
MTRMEH
METAR KMEH 272356Z AUTO VRB05KT 10SM CLR 18/02 A3020 RMK AO2 SLP232
T01780017 10200 20144 56017





000
SAUS46 KPDT 272255
MTRMEH
METAR KMEH 272256Z AUTO VRB06KT 10SM CLR 19/02 A3021 RMK AO2 SLP234
T01890017





000
SAUS46 KPDT 272255
MTRMEH
METAR KMEH 272256Z AUTO VRB06KT 10SM CLR 19/02 A3021 RMK AO2 SLP234
T01890017





000
SAUS46 KPDT 272156
MTRMEH
METAR KMEH 272156Z AUTO 07004KT 10SM CLR 19/M03 A3023 RMK AO2 SLP240
T01941028





000
SAUS46 KPDT 272055
MTRMEH
METAR KMEH 272056Z AUTO VRB03KT 10SM CLR 18/M01 A3025 RMK AO2 SLP248
T01831011 58017





000
SAUS46 KPDT 271956
MTRMEH
METAR KMEH 271956Z AUTO 00000KT 10SM CLR 17/M02 A3028 RMK AO2 SLP259
T01671017





000
SAUS46 KPDT 271956
MTRMEH
METAR KMEH 271956Z AUTO 00000KT 10SM CLR 17/M02 A3028 RMK AO2 SLP259
T01671017





000
SAUS46 KPDT 271855
MTRMEH
METAR KMEH 271856Z AUTO 05004KT 10SM CLR 16/M02 A3029 RMK AO2 SLP265
T01561022





000
SAUS46 KPDT 271803 COR
MTRMEH
METAR KMEH 271756Z AUTO 00000KT 10SM CLR 16/M02 A3031 RMK AO2 SLP271
T01561022 10156 21033 58001





000
SAUS46 KPDT 271803 COR
MTRMEH
METAR KMEH 271756Z AUTO 00000KT 10SM CLR 16/M02 A3031 RMK AO2 SLP271
T01561022 10156 21033 58001





000
SAUS46 KPDT 271655
MTRMEH
METAR KMEH 271656Z AUTO VRB03KT 10SM CLR 13/M04 A3031 RMK AO2 SLP274
T01281044





000
SAUS46 KPDT 271556
MTRMEH
METAR KMEH 271556Z AUTO VRB03KT 10SM CLR 11/M02 A3032 RMK AO2 SLP273
T01111022





000
SAUS46 KPDT 271455
MTRMEH
METAR KMEH 271456Z AUTO 00000KT 10SM CLR 04/M02 A3031 RMK AO2 SLP278
T00441017 53005





000
SAUS46 KPDT 271455
MTRMEH
METAR KMEH 271456Z AUTO 00000KT 10SM CLR 04/M02 A3031 RMK AO2 SLP278
T00441017 53005





000
SAUS46 KPDT 271356
MTRMEH
METAR KMEH 271356Z AUTO 00000KT 8SM CLR M02/M04 A3030 RMK AO2 SLP276
T10171039





000
SAUS46 KPDT 271356
MTRMEH
METAR KMEH 271356Z AUTO 00000KT 8SM CLR M02/M04 A3030 RMK AO2 SLP276
T10171039





000
SAUS46 KPDT 271255
MTRMEH
METAR KMEH 271256Z AUTO 00000KT 10SM CLR M03/M06 A3030 RMK AO2
SLP277 T10331056





000
SAUS46 KPDT 271255
MTRMEH
METAR KMEH 271256Z AUTO 00000KT 10SM CLR M03/M06 A3030 RMK AO2
SLP277 T10331056





000
SAUS46 KPDT 271155
MTRMEH
METAR KMEH 271156Z AUTO 00000KT 10SM CLR M03/M06 A3029 RMK AO2
SLP274 T10331056 11011 21033 53002





000
SAUS46 KPDT 271155
MTRMEH
METAR KMEH 271156Z AUTO 00000KT 10SM CLR M03/M06 A3029 RMK AO2
SLP274 T10331056 11011 21033 53002





000
SAUS46 KPDT 271056
MTRMEH
METAR KMEH 271056Z AUTO 00000KT 10SM CLR M03/M06 A3029 RMK AO2
SLP274 T10331056





000
SAUS46 KPDT 270956
MTRMEH
METAR KMEH 270956Z AUTO 00000KT 10SM CLR M03/M05 A3029 RMK AO2
SLP272 T10281050





000
SAUS46 KPDT 270856
MTRMEH
METAR KMEH 270856Z AUTO 00000KT 10SM CLR M02/M05 A3029 RMK AO2
SLP272 T10221050 53007





000
SAUS46 KPDT 270755
MTRMEH
METAR KMEH 270756Z AUTO 00000KT 10SM FEW090 M02/M04 A3027 RMK AO2
SLP266 T10221044 401171050





000
SAUS46 KPDT 270755
MTRMEH
METAR KMEH 270756Z AUTO 00000KT 10SM FEW090 M02/M04 A3027 RMK AO2
SLP266 T10221044 401171050





000
SAUS46 KPDT 270655
MTRMEH
METAR KMEH 270656Z AUTO 00000KT 10SM CLR M02/M04 A3026 RMK AO2
SLP264 T10171044





000
SAUS46 KPDT 270555
MTRMEH
METAR KMEH 270556Z AUTO 00000KT 10SM CLR M01/M04 A3027 RMK AO2
SLP267 T10111044 10117 21011 50010





000
SAUS46 KPDT 270455
MTRMEH
METAR KMEH 270456Z AUTO 00000KT 10SM CLR 01/M03 A3027 RMK AO2 SLP265
T00061033





000
SAUS46 KPDT 270355
MTRMEH
METAR KMEH 270356Z AUTO 00000KT 10SM CLR 03/M03 A3026 RMK AO2 SLP261
T00281033





000
SAUS46 KPDT 270255
MTRMEH
METAR KMEH 270256Z AUTO 00000KT 10SM CLR 06/M04 A3023 RMK AO2 SLP255
T00561039 51010





000
SAUS46 KPDT 270155
MTRMEH
METAR KMEH 270156Z AUTO 00000KT 10SM CLR 09/M06 A3022 RMK AO2 SLP249
T00941056





000
SAUS46 KPDT 270155
MTRMEH
METAR KMEH 270156Z AUTO 00000KT 10SM CLR 09/M06 A3022 RMK AO2 SLP249
T00941056





000
SAUS46 KPDT 270055
MTRMEH
METAR KMEH 270056Z AUTO VRB03KT 10SM CLR 11/M05 A3021 RMK AO2 SLP249
T01061050





000
SAUS46 KPDT 270055
MTRMEH
METAR KMEH 270056Z AUTO VRB03KT 10SM CLR 11/M05 A3021 RMK AO2 SLP249
T01061050





000
SAUS46 KPDT 262356
MTRMEH
METAR KMEH 262356Z AUTO VRB05KT 10SM CLR 11/M04 A3020 RMK AO2 SLP243
T01111044 10117 20067 51003





000
SAUS46 KPDT 262356
MTRMEH
METAR KMEH 262356Z AUTO VRB05KT 10SM CLR 11/M04 A3020 RMK AO2 SLP243
T01111044 10117 20067 51003





000
SAUS46 KPDT 262255
MTRMEH
METAR KMEH 262256Z AUTO VRB04KT 10SM CLR 11/M04 A3020 RMK AO2 SLP241
T01111044





000
SAUS46 KPDT 262255
MTRMEH
METAR KMEH 262256Z AUTO VRB04KT 10SM CLR 11/M04 A3020 RMK AO2 SLP241
T01111044





000
SAUS46 KPDT 262155
MTRMEH
METAR KMEH 262156Z AUTO VRB04KT 10SM CLR 11/M06 A3020 RMK AO2 SLP241
T01061056





000
SAUS46 KPDT 262055
MTRMEH
METAR KMEH 262056Z AUTO VRB03KT 10SM CLR 10/M06 A3019 RMK AO2 SLP238
T01001056 52003





000
SAUS46 KPDT 262055
MTRMEH
METAR KMEH 262056Z AUTO VRB03KT 10SM CLR 10/M06 A3019 RMK AO2 SLP238
T01001056 52003





000
SAUS46 KPDT 261955
MTRMEH
METAR KMEH 261956Z AUTO VRB03KT 10SM FEW049 11/M03 A3018 RMK AO2
SLP233 T01061028





000
SAUS46 KPDT 261855
MTRMEH
METAR KMEH 261856Z AUTO VRB04KT 10SM SCT044 07/M03 A3018 RMK AO2
SLP238 T00721033





000
SAUS46 KPDT 261855
MTRMEH
METAR KMEH 261856Z AUTO VRB04KT 10SM SCT044 07/M03 A3018 RMK AO2
SLP238 T00721033





000
SAUS46 KPDT 261755
MTRMEH
METAR KMEH 261756Z AUTO VRB04KT 10SM FEW036 07/M03 A3018 RMK AO2
SLP234 I6000 T00671033 10072 21050 51014





000
SAUS46 KPDT 261755
MTRMEH
METAR KMEH 261756Z AUTO VRB04KT 10SM FEW036 07/M03 A3018 RMK AO2
SLP234 I6000 T00671033 10072 21050 51014





000
SAUS46 KPDT 261655
MTRMEH
METAR KMEH 261656Z AUTO VRB04KT 10SM FEW031 07/M02 A3017 RMK AO2
SLP229 T00671022





000
SAUS46 KPDT 261655
MTRMEH
METAR KMEH 261656Z AUTO VRB04KT 10SM FEW031 07/M02 A3017 RMK AO2
SLP229 T00671022





000
SAUS46 KPDT 261555
MTRMEH
METAR KMEH 261556Z AUTO 00000KT 10SM CLR 05/M02 A3015 RMK AO2 SLP226
T00501017





000
SAUS46 KPDT 261555
MTRMEH
METAR KMEH 261556Z AUTO 00000KT 10SM CLR 05/M02 A3015 RMK AO2 SLP226
T00501017





000
SAUS46 KPDT 261455
MTRMEH
METAR KMEH 261456Z AUTO 00000KT 10SM CLR 00/M03 A3013 RMK AO2 SLP224
I3000 T00001028 53017





000
SAUS46 KPDT 261355
MTRMEH
METAR KMEH 261356Z AUTO 00000KT 10SM CLR M03/M06 A3010 RMK AO2
SLP214 T10331056





000
SAUS46 KPDT 261255
MTRMEH
METAR KMEH 261256Z AUTO 00000KT 10SM CLR M05/M07 A3009 RMK AO2
SLP208 I1000 T10501072





000
SAUS46 KPDT 261255
MTRMEH
METAR KMEH 261256Z AUTO 00000KT 10SM CLR M05/M07 A3009 RMK AO2
SLP208 I1000 T10501072





000
SAUS46 KPDT 261155
MTRMEH
METAR KMEH 261156Z AUTO 00000KT 10SM CLR M04/M06 A3008 RMK AO2
SLP205 60000 70009 I1000 I6000 T10441061 10011 21044 53018





000
SAUS46 KPDT 261155
MTRMEH
METAR KMEH 261156Z AUTO 00000KT 10SM CLR M04/M06 A3008 RMK AO2
SLP205 60000 70009 I1000 I6000 T10441061 10011 21044 53018





000
SAUS46 KPDT 261055
MTRMEH
METAR KMEH 261056Z AUTO 00000KT 10SM CLR M04/M06 A3004 RMK AO2
SLP193 I1000 T10391056





000
SAUS46 KPDT 261055
MTRMEH
METAR KMEH 261056Z AUTO 00000KT 10SM CLR M04/M06 A3004 RMK AO2
SLP193 I1000 T10391056





000
SAUS46 KPDT 260956
MTRMEH
METAR KMEH 260956Z AUTO 00000KT 10SM CLR M03/M04 A3002 RMK AO2
SLP188 I1000 T10281044





000
SAUS46 KPDT 260903 COR
MTRMEH
METAR KMEH 260856Z AUTO 00000KT 10SM CLR M02/M04 A3002 RMK AO2
SLP186 60000 I1000 I3000 T10221039 53010





000
SAUS46 KPDT 260903 COR
MTRMEH
METAR KMEH 260856Z AUTO 00000KT 10SM CLR M02/M04 A3002 RMK AO2
SLP186 60000 I1000 I3000 T10221039 53010





000
SAUS46 KPDT 260755
MTRMEH
METAR KMEH 260756Z AUTO 00000KT 10SM CLR M01/M03 A3000 RMK AO2
SLP175 I1000 T10111028 400781017





000
SAUS46 KPDT 260655
MTRMEH
METAR KMEH 260656Z AUTO 00000KT 10SM CLR M01/M02 A2999 RMK AO2 SNE06
SLP174 P0000 T10061022





000
SAUS46 KPDT 260655
MTRMEH
METAR KMEH 260656Z AUTO 00000KT 10SM CLR M01/M02 A2999 RMK AO2 SNE06
SLP174 P0000 T10061022





000
SAUS46 KPDT 260601
MTRMEH
SPECI KMEH 260601Z AUTO 00000KT 4SM -SN BR SCT030 BKN047 OVC095
01/M01 A2998 RMK AO2 P0000 T00111006





000
SAUS46 KPDT 260601
MTRMEH
SPECI KMEH 260601Z AUTO 00000KT 4SM -SN BR SCT030 BKN047 OVC095
01/M01 A2998 RMK AO2 P0000 T00111006





000
SAUS46 KPDT 260553
MTRMEH
METAR KMEH 260555Z AUTO 00000KT 2 1/2SM -SN BR FEW014 BKN028 OVC090
01/M01 A2998 RMK AO2 SNB00E13B31 SLP166 P0002 60002 T00111011 10078
20006 51018





000
SAUS46 KPDT 260553
MTRMEH
METAR KMEH 260555Z AUTO 00000KT 2 1/2SM -SN BR FEW014 BKN028 OVC090
01/M01 A2998 RMK AO2 SNB00E13B31 SLP166 P0002 60002 T00111011 10078
20006 51018





000
SAUS46 KPDT 260549 COR
MTRMEH
SPECI KMEH 260545Z AUTO 00000KT 3SM -SN BR SCT028 OVC046 01/M01
A2999 RMK AO2 SNB00E13B31 P0001 T00111011





000
SAUS46 KPDT 260534
MTRMEH
SPECI KMEH 260534Z AUTO 00000KT 1 3/4SM -SN SCT019 BKN042 OVC090
02/M01 A2998 RMK AO2 SNB00E13B31 P0000 T00171011





000
SAUS46 KPDT 260455
MTRMEH
METAR KMEH 260456Z AUTO 00000KT 10SM FEW015 BKN055 OVC070 02/M02
A2998 RMK AO2 SLP165 T00221017





000
SAUS46 KPDT 260356
MTRMEH
METAR KMEH 260356Z AUTO 00000KT 10SM CLR 01/M02 A2995 RMK AO2 SLP155
T00061022





000
SAUS46 KPDT 260303 COR
MTRMEH
METAR KMEH 260256Z AUTO 00000KT 10SM FEW065 03/M02 A2992 RMK AO2
SLP147 T00281017 53012





000
SAUS46 KPDT 260203 COR
MTRMEH
METAR KMEH 260156Z AUTO VRB03KT 10SM CLR 07/M03 A2990 RMK AO2 SLP136
T00671028





000
SAUS46 KPDT 260203 COR
MTRMEH
METAR KMEH 260156Z AUTO VRB03KT 10SM CLR 07/M03 A2990 RMK AO2 SLP136
T00671028





000
SAUS46 KPDT 260103 COR
MTRMEH
METAR KMEH 260056Z AUTO 00000KT 10SM CLR 08/M01 A2989 RMK AO2 SLP135
T00781011





000
SAUS46 KPDT 252356
MTRMEH
METAR KMEH 252356Z AUTO VRB03KT 10SM CLR 07/M01 A2988 RMK AO2 SLP133
60007 T00671006 10067 20017 55002





000
SAUS46 KPDT 252256
MTRMEH
METAR KMEH 252256Z AUTO 00000KT 10SM FEW011 06/03 A2988 RMK AO2
RAB2158E2159SNE2158 SLP131 P0000 T00610028





000
SAUS46 KPDT 252203
MTRMEH
SPECI KMEH 252202Z AUTO 00000KT 8SM FEW006 SCT014 BKN110 03/02 A2988
RMK AO2 RAB2158E2159SNE2158 P0000 T00330022





000
SAUS46 KPDT 252150
MTRMEH
SPECI KMEH 252151Z AUTO 00000KT 1 1/4SM -SN BR BKN014 03/01 A2989
RMK AO2 VIS 3/4V4 P0005





000
SAUS46 KPDT 252140 COR
MTRMEH
SPECI KMEH 252133Z AUTO 00000KT 1SM -SN BR VV015 02/01 A2990 RMK AO2
P0004 T00220006





000
SAUS46 KPDT 252125
MTRMEH
SPECI KMEH 252124Z AUTO 00000KT 3/4SM -SN BR VV013 02/01 A2990 RMK
AO2 P0003 T00220006





000
SAUS46 KPDT 252115
MTRMEH
SPECI KMEH 252115Z AUTO 00000KT 1SM -SN BR VV014 02/01 A2990 RMK AO2
P0002 T00170006





000
SAUS46 KPDT 252115
MTRMEH
SPECI KMEH 252115Z AUTO 00000KT 1SM -SN BR VV014 02/01 A2990 RMK AO2
P0002 T00170006





000
SAUS46 KPDT 252110
MTRMEH
SPECI KMEH 252111Z AUTO 00000KT 3/4SM -SN BR VV016 02/01 A2990 RMK
AO2 P0002 T00220006





000
SAUS46 KPDT 252102 COR
MTRMEH
METAR KMEH 252056Z AUTO VRB03KT 1 3/4SM -SN BR SCT015 BKN029 OVC070
03/01 A2989 RMK AO2 RAB03E16B46E54SNB54 SLP141 P0002 60002 T00280006
53007





000
SAUS46 KPDT 252024
MTRMEH
SPECI KMEH 252025Z AUTO 00000KT 10SM SCT019 BKN039 OVC060 06/01
A2987 RMK AO2 RAB03E16 P0001 T00560011





000
SAUS46 KPDT 252008
MTRMEH
SPECI KMEH 252009Z AUTO 00000KT 3SM -RA FEW019 BKN027 OVC048 04/01
A2987 RMK AO2 RAB03 P0001 T00440006





000
SAUS46 KPDT 251955
MTRMEH
METAR KMEH 251956Z AUTO 00000KT 10SM SCT016 BKN031 OVC041 06/00
A2987 RMK AO2 RAE03B16E27 SLP129 P0000 T00610000





000
SAUS46 KPDT 251939 COR
MTRMEH
SPECI KMEH 251932Z AUTO 00000KT 10SM BKN015 BKN019 OVC050 06/01
A2988 RMK AO2 RAE03B16E27 P0000 T00560011





000
SAUS46 KPDT 251930 COR
MTRMEH
SPECI KMEH 251924Z AUTO VRB03KT 10SM -RA SCT015 BKN033 OVC050 05/01
A2987 RMK AO2 RAE03B16 P0000 T00500006





000
SAUS46 KPDT 251912
MTRMEH
SPECI KMEH 251913Z AUTO VRB03KT 10SM SCT013 BKN032 OVC055 06/01
A2988 RMK AO2 RAE03 P0000 T00560006





000
SAUS46 KPDT 251855
MTRMEH
METAR KMEH 251856Z AUTO VRB04KT 6SM -RA FEW011 BKN029 OVC048 05/01
A2987 RMK AO2 RAB40 SLP131 P0000 T00500011





000
SAUS46 KPDT 251855
MTRMEH
METAR KMEH 251856Z AUTO VRB04KT 6SM -RA FEW011 BKN029 OVC048 05/01
A2987 RMK AO2 RAB40 SLP131 P0000 T00500011





000
SAUS46 KPDT 251756
MTRMEH
METAR KMEH 251756Z AUTO 00000KT 10SM FEW032 OVC090 06/M01 A2987 RMK
AO2 SLP126 60000 T00611011 10067 21006 51005





000
SAUS46 KPDT 251656
MTRMEH
METAR KMEH 251656Z AUTO 10SM FEW021 OVC095 06/M01 A2987 RMK AO2
SLP126 T00561006





000
SAUS46 KPDT 251656
MTRMEH
METAR KMEH 251656Z AUTO 10SM FEW021 OVC095 06/M01 A2987 RMK AO2
SLP126 T00561006





000
SAUS46 KPDT 251555
MTRMEH
METAR KMEH 251556Z AUTO VRB05KT 10SM FEW019 SCT120 04/M01 A2986 RMK
AO2 SLP124 T00441006





000
SAUS46 KPDT 251528
MTRMEH
SPECI KMEH 251529Z AUTO VRB03KT 10SM BKN018 BKN120 04/00 A2986 RMK
AO2 T00440000





000
SAUS46 KPDT 251528
MTRMEH
SPECI KMEH 251529Z AUTO VRB03KT 10SM BKN018 BKN120 04/00 A2986 RMK
AO2 T00440000





000
SAUS46 KPDT 251455
MTRMEH
METAR KMEH 251456Z AUTO 00000KT 10SM SCT120 03/01 A2985 RMK AO2
SLP120 60000 T00330011 53005





000
SAUS46 KPDT 251403 COR
MTRMEH
METAR KMEH 251356Z AUTO 00000KT 10SM CLR 01/M01 A2984 RMK AO2 SLP118
T00061011





000
SAUS46 KPDT 251255
MTRMEH
METAR KMEH 251256Z AUTO 00000KT 10SM FEW030 BKN048 M01/M02 A2984 RMK
AO2 SNE06 SLP117 P0000 T10061017





000
SAUS46 KPDT 251220
MTRMEH
SPECI KMEH 251221Z AUTO 00000KT 10SM FEW006 SCT035 SCT055 M01/M02
A2983 RMK AO2 SNE06 P0000 T10061017





000
SAUS46 KPDT 251208
MTRMEH
SPECI KMEH 251209Z AUTO 00000KT 9SM SCT006 BKN019 BKN055 00/M02
A2983 RMK AO2 SNE06 P0000 T00001017





000
SAUS46 KPDT 251208
MTRMEH
SPECI KMEH 251209Z AUTO 00000KT 9SM SCT006 BKN019 BKN055 00/M02
A2983 RMK AO2 SNE06 P0000 T00001017





000
SAUS46 KPDT 251200 COR
MTRMEH
METAR KMEH 251156Z AUTO 00000KT 1SM -SN BR OVC021 00/M02 A2984 RMK
AO2 SNB31 SLP114 P0001 60001 70001 T00001017 10017 21017 53002





000
SAUS46 KPDT 251200 COR
MTRMEH
METAR KMEH 251156Z AUTO 00000KT 1SM -SN BR OVC021 00/M02 A2984 RMK
AO2 SNB31 SLP114 P0001 60001 70001 T00001017 10017 21017 53002





000
SAUS46 KPDT 251159
MTRMEH
SPECI KMEH 251201Z AUTO 00000KT 2SM -SN BR FEW007 OVC021 00/M02
A2983 RMK AO2 P0000 T00001017





000
SAUS46 KPDT 251159
MTRMEH
SPECI KMEH 251201Z AUTO 00000KT 2SM -SN BR FEW007 OVC021 00/M02
A2983 RMK AO2 P0000 T00001017





000
SAUS46 KPDT 251141
MTRMEH
SPECI KMEH 251140Z AUTO 00000KT 1 3/4SM -SN BR BKN021 OVC026 M01/M02
A2984 RMK AO2 SNB31 P0000 T10061017





000
SAUS46 KPDT 251129 COR
MTRMEH
SPECI KMEH 251122Z AUTO 00000KT 10SM BKN026 BKN043 OVC080 M01/M02
A2983 RMK AO2 T10061022





000
SAUS46 KPDT 251055
MTRMEH
METAR KMEH 251056Z AUTO 00000KT 10SM BKN042 BKN085 M01/M02 A2983 RMK
AO2 SLP111 T10061022





000
SAUS46 KPDT 251055
MTRMEH
METAR KMEH 251056Z AUTO 00000KT 10SM BKN042 BKN085 M01/M02 A2983 RMK
AO2 SLP111 T10061022





000
SAUS46 KPDT 250955
MTRMEH
METAR KMEH 250956Z AUTO 00000KT 10SM FEW022 BKN042 BKN060 M01/M03
A2983 RMK AO2 SLP114 T10111028





000
SAUS46 KPDT 250855
MTRMEH
METAR KMEH 250856Z AUTO 00000KT 10SM CLR M01/M03 A2983 RMK AO2
SLP114 T10111028 57003





000
SAUS46 KPDT 250755
MTRMEH
METAR KMEH 250756Z AUTO 00000KT 10SM FEW037 FEW045 M01/M03 A2983 RMK
AO2 SLP114 T10061028 400891006





000
SAUS46 KPDT 250655
MTRMEH
METAR KMEH 250656Z AUTO 00000KT 10SM FEW018 SCT080 BKN120 01/M02
A2984 RMK AO2 SLP115 T00061017





000
SAUS46 KPDT 250655
MTRMEH
METAR KMEH 250656Z AUTO 00000KT 10SM FEW018 SCT080 BKN120 01/M02
A2984 RMK AO2 SLP115 T00061017





000
SAUS46 KPDT 250643
MTRMEH
SPECI KMEH 250642Z AUTO 00000KT 10SM SCT018 BKN080 BKN100 01/M02
A2984 RMK AO2 T00061017





000
SAUS46 KPDT 250643
MTRMEH
SPECI KMEH 250642Z AUTO 00000KT 10SM SCT018 BKN080 BKN100 01/M02
A2984 RMK AO2 T00061017





000
SAUS46 KPDT 250633
MTRMEH
SPECI KMEH 250634Z AUTO 00000KT 10SM BKN018 BKN080 BKN110 01/M02
A2984 RMK AO2 T00111017





000
SAUS46 KPDT 250555
MTRMEH
METAR KMEH 250556Z AUTO 00000KT 10SM CLR 02/M01 A2984 RMK AO2 SLP116
T00171011 10083 20017 51010





000
SAUS46 KPDT 250555
MTRMEH
METAR KMEH 250556Z AUTO 00000KT 10SM CLR 02/M01 A2984 RMK AO2 SLP116
T00171011 10083 20017 51010





000
SAUS46 KPDT 250456
MTRMEH
METAR KMEH 250456Z AUTO 00000KT 10SM SCT065 02/M01 A2983 RMK AO2
SLP115 T00221011





000
SAUS46 KPDT 250456
MTRMEH
METAR KMEH 250456Z AUTO 00000KT 10SM SCT065 02/M01 A2983 RMK AO2
SLP115 T00221011





000
SAUS46 KPDT 250356
MTRMEH
METAR KMEH 250356Z AUTO 00000KT 10SM FEW060 03/M01 A2982 RMK AO2
SLP110 T00281011





000
SAUS46 KPDT 250255
MTRMEH
METAR KMEH 250256Z AUTO 00000KT 10SM CLR 04/M02 A2980 RMK AO2 SLP106
T00441017 55001





    US Dept of Commerce
    National Oceanic and Atmospheric Administration
    National Weather Service
    1325 East West Highway
    Silver Spring, MD 20910
    Page Author: NWS Internet Services Team
Disclaimer
Information Quality
Credits
Glossary
Privacy Policy
Freedom of Information Act (FOIA)
About Us
Career Opportunities